sensor_id;sensor_type;location;lat;lon;timestamp;P1;P2;P0
69746;PMS7003;57018;50.278;19.134;2023-03-14T00:01:25;14.00;12.00;7.00
69746;PMS7003;57018;50.278;19.134;2023-03-14T00:03:55;15.00;14.00;9.00
69746;PMS7003;57018;50.278;19.134;2023-03-14T00:06:24;8.00;7.00;4.00
69746;PMS7003;57018;50.278;19.134;2023-03-14T00:08:55;16.00;15.00;8.00
69746;PMS7003;57018;50.278;19.134;2023-03-14T00:11:25;13.00;13.00;10.00
69746;PMS7003;57018;50.278;19.134;2023-03-14T00:13:56;14.00;13.00;8.00
69746;PMS7003;57018;50.278;19.134;2023-03-14T00:16:26;15.50;11.00;9.00
69746;PMS7003;57018;50.278;19.134;2023-03-14T00:18:56;17.00;15.00;10.00
69746;PMS7003;57018;50.278;19.134;2023-03-14T00:21:27;21.00;18.00;11.00
69746;PMS7003;57018;50.278;19.134;2023-03-14T00:23:57;15.50;13.50;10.50
69746;PMS7003;57018;50.278;19.134;2023-03-14T00:26:27;19.00;19.00;11.00
69746;PMS7003;57018;50.278;19.134;2023-03-14T00:28:57;28.00;23.00;14.00
69746;PMS7003;57018;50.278;19.134;2023-03-14T00:31:27;33.00;27.00;19.00
69746;PMS7003;57018;50.278;19.134;2023-03-14T00:33:56;27.33;25.67;16.33
69746;PMS7003;57018;50.278;19.134;2023-03-14T00:36:26;31.00;27.00;18.00
69746;PMS7003;57018;50.278;19.134;2023-03-14T00:38:56;30.00;23.50;14.50
69746;PMS7003;57018;50.278;19.134;2023-03-14T00:41:26;32.00;25.00;19.00
69746;PMS7003;57018;50.278;19.134;2023-03-14T00:43:56;34.50;28.00;19.50
69746;PMS7003;57018;50.278;19.134;2023-03-14T00:46:26;31.50;31.00;19.50
69746;PMS7003;57018;50.278;19.134;2023-03-14T00:48:55;30.00;27.00;17.00
69746;PMS7003;57018;50.278;19.134;2023-03-14T00:51:25;24.50;22.50;16.00
69746;PMS7003;57018;50.278;19.134;2023-03-14T00:53:55;29.00;25.50;13.00
69746;PMS7003;57018;50.278;19.134;2023-03-14T00:56:25;27.50;26.50;17.00
69746;PMS7003;57018;50.278;19.134;2023-03-14T00:58:55;37.00;28.50;19.00
69746;PMS7003;57018;50.278;19.134;2023-03-14T01:03:54;37.00;30.50;18.50
69746;PMS7003;57018;50.278;19.134;2023-03-14T01:06:25;25.00;21.50;16.00
69746;PMS7003;57018;50.278;19.134;2023-03-14T01:08:57;30.00;25.00;17.00
69746;PMS7003;57018;50.278;19.134;2023-03-14T01:11:28;36.67;30.67;19.67
69746;PMS7003;57018;50.278;19.134;2023-03-14T01:13:59;41.00;30.50;21.50
69746;PMS7003;57018;50.278;19.134;2023-03-14T01:16:31;41.00;34.00;23.00
69746;PMS7003;57018;50.278;19.134;2023-03-14T01:19:02;33.50;30.50;20.00
69746;PMS7003;57018;50.278;19.134;2023-03-14T01:21:33;39.67;35.00;23.00
69746;PMS7003;57018;50.278;19.134;2023-03-14T01:24:04;41.00;34.00;21.00
69746;PMS7003;57018;50.278;19.134;2023-03-14T01:26:34;33.00;30.50;22.50
69746;PMS7003;57018;50.278;19.134;2023-03-14T01:29:04;35.00;31.00;22.00
69746;PMS7003;57018;50.278;19.134;2023-03-14T01:31:34;35.00;29.00;17.00
69746;PMS7003;57018;50.278;19.134;2023-03-14T01:34:04;38.50;33.00;21.50
69746;PMS7003;57018;50.278;19.134;2023-03-14T01:36:34;36.00;33.50;21.50
69746;PMS7003;57018;50.278;19.134;2023-03-14T01:39:04;36.00;33.00;22.00
69746;PMS7003;57018;50.278;19.134;2023-03-14T01:41:34;37.50;35.00;22.00
69746;PMS7003;57018;50.278;19.134;2023-03-14T01:44:04;28.00;24.00;19.00
69746;PMS7003;57018;50.278;19.134;2023-03-14T01:46:38;38.00;34.50;21.50
69746;PMS7003;57018;50.278;19.134;2023-03-14T01:49:16;39.00;31.00;21.00
69746;PMS7003;57018;50.278;19.134;2023-03-14T01:51:53;41.00;35.00;22.00
69746;PMS7003;57018;50.278;19.134;2023-03-14T01:54:28;36.50;32.50;23.50
69746;PMS7003;57018;50.278;19.134;2023-03-14T01:57:03;33.00;30.00;20.00
69746;PMS7003;57018;50.278;19.134;2023-03-14T01:59:36;51.50;42.00;27.00
69746;PMS7003;57018;50.278;19.134;2023-03-14T02:02:09;46.00;39.00;25.00
69746;PMS7003;57018;50.278;19.134;2023-03-14T02:04:41;49.00;40.50;26.00
69746;PMS7003;57018;50.278;19.134;2023-03-14T02:07:12;44.50;38.00;25.50
69746;PMS7003;57018;50.278;19.134;2023-03-14T02:09:46;36.00;34.00;22.00
69746;PMS7003;57018;50.278;19.134;2023-03-14T02:12:18;33.50;31.00;22.50
69746;PMS7003;57018;50.278;19.134;2023-03-14T02:14:50;40.00;33.33;21.33
69746;PMS7003;57018;50.278;19.134;2023-03-14T02:17:20;35.50;32.50;21.50
69746;PMS7003;57018;50.278;19.134;2023-03-14T02:19:56;50.33;39.00;26.00
69746;PMS7003;57018;50.278;19.134;2023-03-14T02:25:06;38.00;33.00;21.50
69746;PMS7003;57018;50.278;19.134;2023-03-14T02:27:41;44.00;38.00;23.00
69746;PMS7003;57018;50.278;19.134;2023-03-14T02:30:13;48.00;41.00;26.00
69746;PMS7003;57018;50.278;19.134;2023-03-14T02:32:45;40.00;38.00;23.00
69746;PMS7003;57018;50.278;19.134;2023-03-14T02:35:19;46.00;37.00;25.00
69746;PMS7003;57018;50.278;19.134;2023-03-14T02:37:53;44.00;38.00;26.00
69746;PMS7003;57018;50.278;19.134;2023-03-14T02:40:28;47.00;37.50;23.00
69746;PMS7003;57018;50.278;19.134;2023-03-14T02:42:57;46.00;41.00;26.50
69746;PMS7003;57018;50.278;19.134;2023-03-14T02:48:03;28.50;25.00;15.00
69746;PMS7003;57018;50.278;19.134;2023-03-14T02:50:36;44.00;38.50;26.00
69746;PMS7003;57018;50.278;19.134;2023-03-14T02:53:06;52.50;39.50;26.50
69746;PMS7003;57018;50.278;19.134;2023-03-14T02:55:36;47.00;36.00;26.00
69746;PMS7003;57018;50.278;19.134;2023-03-14T02:58:06;48.00;41.00;27.00
69746;PMS7003;57018;50.278;19.134;2023-03-14T03:00:36;55.50;43.50;28.00
69746;PMS7003;57018;50.278;19.134;2023-03-14T03:03:06;61.00;44.00;28.50
69746;PMS7003;57018;50.278;19.134;2023-03-14T03:05:35;49.00;40.00;26.00
69746;PMS7003;57018;50.278;19.134;2023-03-14T03:08:05;47.00;39.00;27.00
69746;PMS7003;57018;50.278;19.134;2023-03-14T03:10:36;52.00;42.00;28.00
69746;PMS7003;57018;50.278;19.134;2023-03-14T03:13:06;46.00;38.00;25.00
69746;PMS7003;57018;50.278;19.134;2023-03-14T03:15:35;44.50;38.00;23.00
69746;PMS7003;57018;50.278;19.134;2023-03-14T03:18:06;48.00;40.00;26.00
69746;PMS7003;57018;50.278;19.134;2023-03-14T03:20:36;48.00;39.00;25.50
69746;PMS7003;57018;50.278;19.134;2023-03-14T03:23:06;57.00;47.00;30.00
69746;PMS7003;57018;50.278;19.134;2023-03-14T03:25:36;67.00;53.00;36.00
69746;PMS7003;57018;50.278;19.134;2023-03-14T03:28:05;71.00;54.00;34.00
69746;PMS7003;57018;50.278;19.134;2023-03-14T03:30:38;67.50;53.50;33.50
69746;PMS7003;57018;50.278;19.134;2023-03-14T03:33:08;64.00;53.50;34.50
69746;PMS7003;57018;50.278;19.134;2023-03-14T03:35:43;61.00;48.00;33.00
69746;PMS7003;57018;50.278;19.134;2023-03-14T03:38:14;67.33;53.00;34.00
69746;PMS7003;57018;50.278;19.134;2023-03-14T03:40:46;40.50;37.00;27.00
69746;PMS7003;57018;50.278;19.134;2023-03-14T03:43:16;52.00;42.50;26.00
69746;PMS7003;57018;50.278;19.134;2023-03-14T03:45:46;76.50;60.00;37.50
69746;PMS7003;57018;50.278;19.134;2023-03-14T03:48:16;70.00;58.00;37.00
69746;PMS7003;57018;50.278;19.134;2023-03-14T03:50:46;52.00;43.00;29.50
69746;PMS7003;57018;50.278;19.134;2023-03-14T03:53:16;60.00;48.00;31.00
69746;PMS7003;57018;50.278;19.134;2023-03-14T03:55:46;60.00;49.00;32.00
69746;PMS7003;57018;50.278;19.134;2023-03-14T03:58:16;46.50;39.50;27.00
69746;PMS7003;57018;50.278;19.134;2023-03-14T04:00:46;50.00;40.00;26.00
69746;PMS7003;57018;50.278;19.134;2023-03-14T04:03:15;51.00;41.00;28.50
69746;PMS7003;57018;50.278;19.134;2023-03-14T04:05:45;53.00;43.00;27.00
69746;PMS7003;57018;50.278;19.134;2023-03-14T04:08:25;58.00;45.00;28.00
69746;PMS7003;57018;50.278;19.134;2023-03-14T04:10:56;41.00;33.00;23.00
69746;PMS7003;57018;50.278;19.134;2023-03-14T04:13:27;40.00;34.00;22.00
69746;PMS7003;57018;50.278;19.134;2023-03-14T04:15:57;28.00;26.00;18.00
69746;PMS7003;57018;50.278;19.134;2023-03-14T04:18:27;27.00;23.00;15.00
69746;PMS7003;57018;50.278;19.134;2023-03-14T04:20:57;30.67;29.33;19.00
69746;PMS7003;57018;50.278;19.134;2023-03-14T04:23:27;30.50;28.50;17.50
69746;PMS7003;57018;50.278;19.134;2023-03-14T04:25:57;32.00;28.00;21.00
69746;PMS7003;57018;50.278;19.134;2023-03-14T04:28:27;37.00;32.00;23.00
69746;PMS7003;57018;50.278;19.134;2023-03-14T04:30:56;36.00;31.00;22.00
69746;PMS7003;57018;50.278;19.134;2023-03-14T04:33:34;32.00;29.50;19.50
69746;PMS7003;57018;50.278;19.134;2023-03-14T04:36:04;25.00;25.00;17.00
69746;PMS7003;57018;50.278;19.134;2023-03-14T04:38:36;24.50;23.00;15.00
69746;PMS7003;57018;50.278;19.134;2023-03-14T04:41:06;25.00;22.00;13.00
69746;PMS7003;57018;50.278;19.134;2023-03-14T04:43:36;25.00;21.00;12.00
69746;PMS7003;57018;50.278;19.134;2023-03-14T04:46:06;16.67;15.00;12.00
69746;PMS7003;57018;50.278;19.134;2023-03-14T04:48:36;19.00;19.00;15.50
69746;PMS7003;57018;50.278;19.134;2023-03-14T04:51:06;19.50;19.00;11.50
69746;PMS7003;57018;50.278;19.134;2023-03-14T04:53:39;19.33;18.67;11.67
69746;PMS7003;57018;50.278;19.134;2023-03-14T04:56:09;17.50;16.50;12.00
69746;PMS7003;57018;50.278;19.134;2023-03-14T04:58:39;19.00;15.00;12.00
69746;PMS7003;57018;50.278;19.134;2023-03-14T05:01:10;19.50;16.00;11.00
69746;PMS7003;57018;50.278;19.134;2023-03-14T05:03:40;25.00;21.00;16.00
69746;PMS7003;57018;50.278;19.134;2023-03-14T05:06:11;19.00;17.00;12.00
69746;PMS7003;57018;50.278;19.134;2023-03-14T05:08:41;20.00;17.00;10.00
69746;PMS7003;57018;50.278;19.134;2023-03-14T05:11:11;28.00;23.00;16.00
69746;PMS7003;57018;50.278;19.134;2023-03-14T05:13:41;21.00;20.00;12.50
69746;PMS7003;57018;50.278;19.134;2023-03-14T05:16:12;19.00;18.50;14.50
69746;PMS7003;57018;50.278;19.134;2023-03-14T05:18:42;19.50;17.00;12.00
69746;PMS7003;57018;50.278;19.134;2023-03-14T05:21:12;17.00;17.00;11.50
69746;PMS7003;57018;50.278;19.134;2023-03-14T05:23:42;24.00;19.00;13.00
69746;PMS7003;57018;50.278;19.134;2023-03-14T05:26:12;18.00;16.50;12.50
69746;PMS7003;57018;50.278;19.134;2023-03-14T05:28:43;14.00;14.00;12.00
69746;PMS7003;57018;50.278;19.134;2023-03-14T05:31:13;12.00;10.00;9.00
69746;PMS7003;57018;50.278;19.134;2023-03-14T05:33:43;14.00;13.00;9.00
69746;PMS7003;57018;50.278;19.134;2023-03-14T05:36:12;13.50;12.50;9.50
69746;PMS7003;57018;50.278;19.134;2023-03-14T05:38:42;12.00;12.00;6.50
69746;PMS7003;57018;50.278;19.134;2023-03-14T05:41:13;15.00;15.00;12.00
69746;PMS7003;57018;50.278;19.134;2023-03-14T05:43:42;19.50;14.00;11.50
69746;PMS7003;57018;50.278;19.134;2023-03-14T05:46:12;18.50;17.50;10.50
69746;PMS7003;57018;50.278;19.134;2023-03-14T05:48:42;17.00;17.00;12.00
69746;PMS7003;57018;50.278;19.134;2023-03-14T05:51:12;13.50;13.50;10.50
69746;PMS7003;57018;50.278;19.134;2023-03-14T05:53:42;21.00;18.00;13.00
69746;PMS7003;57018;50.278;19.134;2023-03-14T05:56:12;19.67;18.33;13.33
69746;PMS7003;57018;50.278;19.134;2023-03-14T05:58:41;25.50;22.50;14.00
69746;PMS7003;57018;50.278;19.134;2023-03-14T06:01:14;23.00;21.00;14.00
69746;PMS7003;57018;50.278;19.134;2023-03-14T06:03:46;20.00;18.50;13.00
69746;PMS7003;57018;50.278;19.134;2023-03-14T06:06:15;17.67;15.00;12.00
69746;PMS7003;57018;50.278;19.134;2023-03-14T06:08:45;20.00;18.00;12.00
69746;PMS7003;57018;50.278;19.134;2023-03-14T06:11:15;21.00;17.50;11.50
69746;PMS7003;57018;50.278;19.134;2023-03-14T06:13:45;15.00;14.50;11.50
69746;PMS7003;57018;50.278;19.134;2023-03-14T06:16:15;9.67;9.67;7.00
69746;PMS7003;57018;50.278;19.134;2023-03-14T06:18:45;12.00;9.00;7.00
69746;PMS7003;57018;50.278;19.134;2023-03-14T06:21:15;12.00;9.00;7.00
69746;PMS7003;57018;50.278;19.134;2023-03-14T06:23:46;15.00;14.00;9.00
69746;PMS7003;57018;50.278;19.134;2023-03-14T06:26:16;14.00;12.00;9.00
69746;PMS7003;57018;50.278;19.134;2023-03-14T06:28:46;15.00;11.00;9.00
69746;PMS7003;57018;50.278;19.134;2023-03-14T06:31:16;9.00;8.00;6.00
69746;PMS7003;57018;50.278;19.134;2023-03-14T06:36:14;11.50;9.50;7.25
69746;PMS7003;57018;50.278;19.134;2023-03-14T06:38:44;13.50;13.50;10.00
69746;PMS7003;57018;50.278;19.134;2023-03-14T06:41:13;7.00;7.00;5.50
69746;PMS7003;57018;50.278;19.134;2023-03-14T06:43:44;10.67;9.33;7.00
69746;PMS7003;57018;50.278;19.134;2023-03-14T06:46:14;10.50;9.00;7.00
69746;PMS7003;57018;50.278;19.134;2023-03-14T06:48:43;12.33;7.33;6.33
69746;PMS7003;57018;50.278;19.134;2023-03-14T06:51:13;14.00;8.50;4.50
69746;PMS7003;57018;50.278;19.134;2023-03-14T06:53:43;11.00;10.00;6.00
69746;PMS7003;57018;50.278;19.134;2023-03-14T06:56:13;10.00;8.00;7.00
69746;PMS7003;57018;50.278;19.134;2023-03-14T06:58:43;8.50;8.50;6.00
69746;PMS7003;57018;50.278;19.134;2023-03-14T07:01:17;12.50;10.50;7.00
69746;PMS7003;57018;50.278;19.134;2023-03-14T07:03:51;15.00;10.00;8.00
69746;PMS7003;57018;50.278;19.134;2023-03-14T07:06:21;8.75;7.00;5.25
69746;PMS7003;57018;50.278;19.134;2023-03-14T07:08:51;13.00;10.00;7.00
69746;PMS7003;57018;50.278;19.134;2023-03-14T07:11:21;9.00;8.67;6.00
69746;PMS7003;57018;50.278;19.134;2023-03-14T07:13:52;10.00;9.00;6.00
69746;PMS7003;57018;50.278;19.134;2023-03-14T07:16:22;9.00;8.00;5.00
69746;PMS7003;57018;50.278;19.134;2023-03-14T07:18:55;7.00;7.00;6.00
69746;PMS7003;57018;50.278;19.134;2023-03-14T07:21:25;8.00;8.00;5.00
69746;PMS7003;57018;50.278;19.134;2023-03-14T07:23:55;11.00;10.50;8.00
69746;PMS7003;57018;50.278;19.134;2023-03-14T07:26:25;10.00;8.67;6.33
69746;PMS7003;57018;50.278;19.134;2023-03-14T07:28:55;11.00;9.50;6.50
69746;PMS7003;57018;50.278;19.134;2023-03-14T07:31:25;10.00;10.00;6.00
69746;PMS7003;57018;50.278;19.134;2023-03-14T07:33:55;9.50;8.50;7.00
69746;PMS7003;57018;50.278;19.134;2023-03-14T07:36:25;8.00;8.00;5.67
69746;PMS7003;57018;50.278;19.134;2023-03-14T07:38:54;12.00;12.00;7.50
69746;PMS7003;57018;50.278;19.134;2023-03-14T07:41:24;13.00;11.00;7.50
69746;PMS7003;57018;50.278;19.134;2023-03-14T07:43:55;12.00;12.00;7.67
69746;PMS7003;57018;50.278;19.134;2023-03-14T07:46:27;9.00;9.00;7.00
69746;PMS7003;57018;50.278;19.134;2023-03-14T07:48:57;14.50;13.00;9.00
69746;PMS7003;57018;50.278;19.134;2023-03-14T07:51:26;12.67;12.67;9.67
69746;PMS7003;57018;50.278;19.134;2023-03-14T07:53:57;14.50;12.50;9.00
69746;PMS7003;57018;50.278;19.134;2023-03-14T07:56:26;11.50;10.00;6.50
69746;PMS7003;57018;50.278;19.134;2023-03-14T07:58:56;10.50;8.50;5.50
69746;PMS7003;57018;50.278;19.134;2023-03-14T08:01:26;10.50;10.50;7.00
69746;PMS7003;57018;50.278;19.134;2023-03-14T08:03:57;9.00;8.50;7.00
69746;PMS7003;57018;50.278;19.134;2023-03-14T08:06:27;12.00;10.00;7.00
69746;PMS7003;57018;50.278;19.134;2023-03-14T08:08:57;9.50;9.00;6.50
69746;PMS7003;57018;50.278;19.134;2023-03-14T08:11:27;11.50;11.00;9.00
69746;PMS7003;57018;50.278;19.134;2023-03-14T08:13:56;9.50;8.50;6.50
69746;PMS7003;57018;50.278;19.134;2023-03-14T08:16:26;8.00;8.00;5.50
69746;PMS7003;57018;50.278;19.134;2023-03-14T08:18:56;9.00;9.00;5.00
69746;PMS7003;57018;50.278;19.134;2023-03-14T08:21:26;10.50;9.00;6.00
69746;PMS7003;57018;50.278;19.134;2023-03-14T08:23:56;7.67;7.00;5.33
69746;PMS7003;57018;50.278;19.134;2023-03-14T08:26:27;11.50;11.00;9.00
69746;PMS7003;57018;50.278;19.134;2023-03-14T08:28:57;9.50;8.50;6.00
69746;PMS7003;57018;50.278;19.134;2023-03-14T08:31:27;11.00;9.50;6.50
69746;PMS7003;57018;50.278;19.134;2023-03-14T08:33:59;9.00;9.00;7.00
69746;PMS7003;57018;50.278;19.134;2023-03-14T08:36:29;8.00;8.00;6.50
69746;PMS7003;57018;50.278;19.134;2023-03-14T08:38:59;8.00;7.50;5.00
69746;PMS7003;57018;50.278;19.134;2023-03-14T08:41:30;10.00;8.00;7.00
69746;PMS7003;57018;50.278;19.134;2023-03-14T08:44:00;7.50;7.50;6.00
69746;PMS7003;57018;50.278;19.134;2023-03-14T08:46:30;12.00;12.00;9.00
69746;PMS7003;57018;50.278;19.134;2023-03-14T08:49:00;11.33;9.67;7.67
69746;PMS7003;57018;50.278;19.134;2023-03-14T08:51:30;13.00;10.00;7.00
69746;PMS7003;57018;50.278;19.134;2023-03-14T08:54:00;13.00;11.00;8.00
69746;PMS7003;57018;50.278;19.134;2023-03-14T08:56:30;5.00;5.00;3.00
69746;PMS7003;57018;50.278;19.134;2023-03-14T08:58:59;8.50;8.50;6.50
69746;PMS7003;57018;50.278;19.134;2023-03-14T09:01:29;12.67;9.00;8.00
69746;PMS7003;57018;50.278;19.134;2023-03-14T09:03:59;13.00;11.67;7.67
69746;PMS7003;57018;50.278;19.134;2023-03-14T09:06:29;12.00;11.00;7.00
69746;PMS7003;57018;50.278;19.134;2023-03-14T09:08:59;11.00;11.00;9.00
69746;PMS7003;57018;50.278;19.134;2023-03-14T09:11:30;9.00;9.00;5.00
69746;PMS7003;57018;50.278;19.134;2023-03-14T09:14:00;11.00;11.00;8.00
69746;PMS7003;57018;50.278;19.134;2023-03-14T09:16:30;11.00;9.50;7.50
69746;PMS7003;57018;50.278;19.134;2023-03-14T09:19:00;10.00;10.00;7.00
69746;PMS7003;57018;50.278;19.134;2023-03-14T09:21:30;12.00;9.00;8.00
69746;PMS7003;57018;50.278;19.134;2023-03-14T09:24:00;10.50;10.50;8.00
69746;PMS7003;57018;50.278;19.134;2023-03-14T09:26:30;12.00;9.00;7.00
69746;PMS7003;57018;50.278;19.134;2023-03-14T09:29:00;16.67;14.33;8.67
69746;PMS7003;57018;50.278;19.134;2023-03-14T09:31:30;15.00;13.00;8.00
69746;PMS7003;57018;50.278;19.134;2023-03-14T09:34:00;10.00;10.00;7.00
69746;PMS7003;57018;50.278;19.134;2023-03-14T09:36:30;12.00;9.50;8.00
69746;PMS7003;57018;50.278;19.134;2023-03-14T09:39:00;12.00;11.00;9.00
69746;PMS7003;57018;50.278;19.134;2023-03-14T09:41:31;13.67;13.67;9.33
69746;PMS7003;57018;50.278;19.134;2023-03-14T09:44:05;10.00;10.00;8.00
69746;PMS7003;57018;50.278;19.134;2023-03-14T09:46:38;12.50;11.50;8.00
69746;PMS7003;57018;50.278;19.134;2023-03-14T09:49:11;8.67;7.00;5.33
69746;PMS7003;57018;50.278;19.134;2023-03-14T09:54:22;8.00;7.00;5.00
69746;PMS7003;57018;50.278;19.134;2023-03-14T09:56:58;7.00;7.00;4.25
69746;PMS7003;57018;50.278;19.134;2023-03-14T09:59:28;16.00;10.00;8.00
69746;PMS7003;57018;50.278;19.134;2023-03-14T10:01:59;9.00;9.00;7.00
69746;PMS7003;57018;50.278;19.134;2023-03-14T10:04:39;9.00;7.50;6.00
69746;PMS7003;57018;50.278;19.134;2023-03-14T10:07:13;23.00;21.00;16.00
69746;PMS7003;57018;50.278;19.134;2023-03-14T10:09:47;4.00;2.00;1.00
69746;PMS7003;57018;50.278;19.134;2023-03-14T10:12:18;5.00;4.50;3.00
69746;PMS7003;57018;50.278;19.134;2023-03-14T10:14:58;8.00;8.00;6.00
69746;PMS7003;57018;50.278;19.134;2023-03-14T10:17:39;9.00;8.00;6.00
69746;PMS7003;57018;50.278;19.134;2023-03-14T10:20:25;10.00;9.50;6.00
69746;PMS7003;57018;50.278;19.134;2023-03-14T10:22:59;6.00;6.00;5.00
69746;PMS7003;57018;50.278;19.134;2023-03-14T10:25:32;5.50;5.00;3.00
69746;PMS7003;57018;50.278;19.134;2023-03-14T10:30:39;11.00;8.50;6.50
69746;PMS7003;57018;50.278;19.134;2023-03-14T10:33:18;12.75;10.50;8.25
69746;PMS7003;57018;50.278;19.134;2023-03-14T10:35:53;15.00;12.00;8.50
69746;PMS7003;57018;50.278;19.134;2023-03-14T10:38:25;10.00;10.00;7.00
69746;PMS7003;57018;50.278;19.134;2023-03-14T10:40:56;10.50;10.50;7.00
69746;PMS7003;57018;50.278;19.134;2023-03-14T10:43:27;15.50;13.00;9.50
69746;PMS7003;57018;50.278;19.134;2023-03-14T10:46:05;10.50;10.50;7.50
69746;PMS7003;57018;50.278;19.134;2023-03-14T10:48:37;13.00;13.00;9.00
69746;PMS7003;57018;50.278;19.134;2023-03-14T10:51:09;16.00;14.00;11.00
69746;PMS7003;57018;50.278;19.134;2023-03-14T10:53:46;12.00;12.00;8.00
69746;PMS7003;57018;50.278;19.134;2023-03-14T10:56:18;14.00;13.00;9.00
69746;PMS7003;57018;50.278;19.134;2023-03-14T10:58:49;10.50;10.50;9.50
69746;PMS7003;57018;50.278;19.134;2023-03-14T11:01:31;13.00;13.00;8.00
69746;PMS7003;57018;50.278;19.134;2023-03-14T11:04:13;16.50;15.00;9.00
69746;PMS7003;57018;50.278;19.134;2023-03-14T11:06:50;13.50;13.50;10.00
69746;PMS7003;57018;50.278;19.134;2023-03-14T11:09:28;13.00;10.50;7.00
69746;PMS7003;57018;50.278;19.134;2023-03-14T11:12:03;12.50;12.00;7.50
69746;PMS7003;57018;50.278;19.134;2023-03-14T11:14:51;10.50;10.50;9.00
69746;PMS7003;57018;50.278;19.134;2023-03-14T11:17:27;12.00;11.00;7.00
69746;PMS7003;57018;50.278;19.134;2023-03-14T11:20:10;17.33;13.33;9.33
69746;PMS7003;57018;50.278;19.134;2023-03-14T11:22:57;16.00;12.50;9.50
69746;PMS7003;57018;50.278;19.134;2023-03-14T11:25:32;17.00;14.00;9.50
69746;PMS7003;57018;50.278;19.134;2023-03-14T11:28:16;14.00;12.00;10.00
69746;PMS7003;57018;50.278;19.134;2023-03-14T11:30:52;17.00;15.00;10.00
69746;PMS7003;57018;50.278;19.134;2023-03-14T11:33:24;13.50;10.50;7.50
69746;PMS7003;57018;50.278;19.134;2023-03-14T11:36:01;10.00;10.00;6.00
69746;PMS7003;57018;50.278;19.134;2023-03-14T11:38:37;11.00;11.00;9.00
69746;PMS7003;57018;50.278;19.134;2023-03-14T11:41:12;15.00;13.00;9.00
69746;PMS7003;57018;50.278;19.134;2023-03-14T11:43:46;10.50;10.00;8.00
69746;PMS7003;57018;50.278;19.134;2023-03-14T11:46:21;17.67;13.67;11.00
69746;PMS7003;57018;50.278;19.134;2023-03-14T11:48:58;15.75;14.00;9.75
69746;PMS7003;57018;50.278;19.134;2023-03-14T11:51:32;15.50;13.50;11.00
69746;PMS7003;57018;50.278;19.134;2023-03-14T11:54:11;17.00;15.00;10.50
69746;PMS7003;57018;50.278;19.134;2023-03-14T11:56:59;14.00;12.00;7.50
69746;PMS7003;57018;50.278;19.134;2023-03-14T11:59:33;15.67;15.33;11.00
69746;PMS7003;57018;50.278;19.134;2023-03-14T12:02:15;11.00;11.00;8.50
69746;PMS7003;57018;50.278;19.134;2023-03-14T12:04:51;15.33;14.00;9.33
69746;PMS7003;57018;50.278;19.134;2023-03-14T12:07:37;13.50;12.00;7.50
69746;PMS7003;57018;50.278;19.134;2023-03-14T12:10:19;13.00;12.00;10.00
69746;PMS7003;57018;50.278;19.134;2023-03-14T12:12:49;14.00;14.00;9.50
69746;PMS7003;57018;50.278;19.134;2023-03-14T12:15:20;18.00;15.00;11.00
69746;PMS7003;57018;50.278;19.134;2023-03-14T12:17:54;19.00;15.50;11.50
69746;PMS7003;57018;50.278;19.134;2023-03-14T12:20:24;13.00;13.00;10.00
69746;PMS7003;57018;50.278;19.134;2023-03-14T12:22:55;15.00;13.50;10.50
69746;PMS7003;57018;50.278;19.134;2023-03-14T12:25:30;15.50;12.00;10.00
69746;PMS7003;57018;50.278;19.134;2023-03-14T12:28:16;13.50;12.50;8.00
69746;PMS7003;57018;50.278;19.134;2023-03-14T12:30:48;18.00;18.00;11.00
69746;PMS7003;57018;50.278;19.134;2023-03-14T12:36:02;19.67;15.67;10.00
69746;PMS7003;57018;50.278;19.134;2023-03-14T12:41:48;18.00;17.00;11.00
69746;PMS7003;57018;50.278;19.134;2023-03-14T12:44:40;17.00;16.00;10.67
69746;PMS7003;57018;50.278;19.134;2023-03-14T12:50:18;20.50;17.50;11.50
69746;PMS7003;57018;50.278;19.134;2023-03-14T12:52:57;12.00;12.00;9.00
69746;PMS7003;57018;50.278;19.134;2023-03-14T12:55:45;19.33;18.67;12.67
69746;PMS7003;57018;50.278;19.134;2023-03-14T12:58:23;20.00;18.67;14.33
69746;PMS7003;57018;50.278;19.134;2023-03-14T13:01:00;17.00;16.00;13.50
69746;PMS7003;57018;50.278;19.134;2023-03-14T13:03:37;22.00;18.00;13.00
69746;PMS7003;57018;50.278;19.134;2023-03-14T13:06:11;18.00;16.00;12.00
69746;PMS7003;57018;50.278;19.134;2023-03-14T13:09:13;18.50;16.50;10.50
69746;PMS7003;57018;50.278;19.134;2023-03-14T13:12:30;18.50;17.50;11.00
69746;PMS7003;57018;50.278;19.134;2023-03-14T13:15:15;19.00;18.00;12.00
69746;PMS7003;57018;50.278;19.134;2023-03-14T13:17:49;13.00;13.00;9.00
69746;PMS7003;57018;50.278;19.134;2023-03-14T13:20:24;13.50;10.50;7.00
69746;PMS7003;57018;50.278;19.134;2023-03-14T13:22:59;16.00;14.00;10.00
69746;PMS7003;57018;50.278;19.134;2023-03-14T13:25:33;16.00;16.00;11.00
69746;PMS7003;57018;50.278;19.134;2023-03-14T13:28:04;15.33;14.33;10.00
69746;PMS7003;57018;50.278;19.134;2023-03-14T13:30:40;16.00;16.00;13.00
69746;PMS7003;57018;50.278;19.134;2023-03-14T13:33:15;19.33;16.67;12.33
69746;PMS7003;57018;50.278;19.134;2023-03-14T13:35:47;12.50;12.50;10.50
69746;PMS7003;57018;50.278;19.134;2023-03-14T13:38:22;13.00;13.00;9.00
69746;PMS7003;57018;50.278;19.134;2023-03-14T13:40:55;15.00;12.00;7.00
69746;PMS7003;57018;50.278;19.134;2023-03-14T13:43:27;14.00;12.00;8.50
69746;PMS7003;57018;50.278;19.134;2023-03-14T13:46:02;14.00;13.00;9.00
69746;PMS7003;57018;50.278;19.134;2023-03-14T13:48:34;14.00;12.00;9.00
69746;PMS7003;57018;50.278;19.134;2023-03-14T13:51:10;15.50;12.00;9.00
69746;PMS7003;57018;50.278;19.134;2023-03-14T13:53:45;9.00;9.00;7.00
69746;PMS7003;57018;50.278;19.134;2023-03-14T13:56:17;12.33;11.67;8.67
69746;PMS7003;57018;50.278;19.134;2023-03-14T13:58:47;15.25;12.00;8.50
69746;PMS7003;57018;50.278;19.134;2023-03-14T14:01:18;16.00;14.00;11.00
69746;PMS7003;57018;50.278;19.134;2023-03-14T14:03:51;15.00;15.00;10.00
69746;PMS7003;57018;50.278;19.134;2023-03-14T14:06:32;17.50;16.00;11.50
69746;PMS7003;57018;50.278;19.134;2023-03-14T14:09:12;17.50;15.25;12.00
69746;PMS7003;57018;50.278;19.134;2023-03-14T14:11:44;15.50;15.00;11.50
69746;PMS7003;57018;50.278;19.134;2023-03-14T14:14:19;17.50;16.00;12.00
69746;PMS7003;57018;50.278;19.134;2023-03-14T14:16:53;19.00;18.00;13.00
69746;PMS7003;57018;50.278;19.134;2023-03-14T14:19:25;26.33;24.00;16.00
69746;PMS7003;57018;50.278;19.134;2023-03-14T14:21:57;21.00;20.50;11.50
69746;PMS7003;57018;50.278;19.134;2023-03-14T14:24:30;22.00;17.00;13.00
69746;PMS7003;57018;50.278;19.134;2023-03-14T14:27:01;18.50;16.00;12.00
69746;PMS7003;57018;50.278;19.134;2023-03-14T14:29:36;11.33;10.67;8.67
69746;PMS7003;57018;50.278;19.134;2023-03-14T14:32:11;20.50;13.50;9.00
69746;PMS7003;57018;50.278;19.134;2023-03-14T14:34:43;17.00;15.00;11.00
69746;PMS7003;57018;50.278;19.134;2023-03-14T14:37:18;18.00;17.00;12.00